Time,TemperatureF,DewpointF,PressureIn,WindDirection,WindDirectionDegrees,WindSpeedMPH,WindSpeedGustMPH,Humidity,HourlyPrecipIn,Conditions,Clouds,dailyrainin,SoftwareType,DateUTC
2013-06-22 00:11:00,63.3,59.0,30.30,SW,224,2.0,5.0,86,0.00,,,0.00,weatherlink.com 1.10,2013-06-22 04:11:00,
2013-06-22 00:26:00,63.0,59.0,30.30,WSW,255,4.0,5.0,87,0.00,,,0.00,weatherlink.com 1.10,2013-06-22 04:26:00,
2013-06-22 00:41:00,62.9,59.0,30.30,WSW,248,4.0,7.0,88,0.00,,,0.00,weatherlink.com 1.10,2013-06-22 04:41:00,
2013-06-22 00:56:00,62.6,59.0,30.30,WSW,255,3.0,5.0,88,0.00,,,0.00,weatherlink.com 1.10,2013-06-22 04:56:00,
2013-06-22 01:11:00,62.5,59.0,30.29,WSW,243,3.0,5.0,89,0.00,,,0.00,weatherlink.com 1.10,2013-06-22 05:11:00,
2013-06-22 01:26:00,62.4,59.0,30.29,WSW,239,3.0,4.0,89,0.00,,,0.00,weatherlink.com 1.10,2013-06-22 05:26:00,
2013-06-22 01:41:00,62.6,59.0,30.30,WSW,250,3.0,5.0,87,0.00,,,0.00,weatherlink.com 1.10,2013-06-22 05:41:00,
2013-06-22 01:56:00,62.6,59.0,30.30,NW,318,2.0,7.0,88,0.00,,,0.00,weatherlink.com 1.10,2013-06-22 05:56:00,
2013-06-22 02:11:00,62.6,59.0,30.30,West,263,2.0,6.0,87,0.00,,,0.00,weatherlink.com 1.10,2013-06-22 06:11:00,
2013-06-22 02:26:00,62.8,58.0,30.30,WSW,252,3.0,5.0,85,0.00,,,0.00,weatherlink.com 1.10,2013-06-22 06:26:00,
2013-06-22 02:41:00,62.7,58.0,30.30,WSW,257,2.0,5.0,85,0.00,,,0.00,weatherlink.com 1.10,2013-06-22 06:41:00,
2013-06-22 02:56:00,62.6,57.0,30.29,WSW,248,1.0,3.0,83,0.00,,,0.00,weatherlink.com 1.10,2013-06-22 06:56:00,
2013-06-22 03:11:00,62.6,57.0,30.29,WSW,250,1.0,4.0,82,0.00,,,0.00,weatherlink.com 1.10,2013-06-22 07:11:00,
2013-06-22 03:26:00,62.7,57.0,30.30,WSW,239,2.0,4.0,81,0.00,,,0.00,weatherlink.com 1.10,2013-06-22 07:26:00,
2013-06-22 03:41:00,62.6,57.0,30.30,WSW,246,2.0,5.0,82,0.00,,,0.00,weatherlink.com 1.10,2013-06-22 07:41:00,
2013-06-22 03:56:00,62.7,58.0,30.30,WSW,248,3.0,4.0,85,0.00,,,0.00,weatherlink.com 1.10,2013-06-22 07:56:00,
2013-06-22 04:11:00,62.4,59.0,30.29,WSW,239,5.0,6.0,87,0.00,,,0.00,weatherlink.com 1.10,2013-06-22 08:11:00,
2013-06-22 04:26:00,62.1,59.0,30.29,SSW,204,1.0,6.0,88,0.00,,,0.00,weatherlink.com 1.10,2013-06-22 08:26:00,
2013-06-22 04:41:00,61.8,59.0,30.30,SW,233,2.0,4.0,89,0.00,,,0.00,weatherlink.com 1.10,2013-06-22 08:41:00,
2013-06-22 04:56:00,61.9,59.0,30.29,SW,214,2.0,5.0,90,0.00,,,0.00,weatherlink.com 1.10,2013-06-22 08:56:00,
2013-06-22 05:11:00,61.8,60.0,30.30,WSW,240,2.0,5.0,92,0.00,,,0.00,weatherlink.com 1.10,2013-06-22 09:11:00,
2013-06-22 05:26:00,61.7,60.0,30.30,SW,233,3.0,4.0,93,0.00,,,0.00,weatherlink.com 1.10,2013-06-22 09:26:00,
2013-06-22 05:41:00,61.7,60.0,30.30,WSW,249,3.0,4.0,94,0.00,,,0.00,weatherlink.com 1.10,2013-06-22 09:41:00,
2013-06-22 05:56:00,62.2,61.0,30.30,WSW,256,1.0,3.0,94,0.00,,,0.00,weatherlink.com 1.10,2013-06-22 09:56:00,
2013-06-22 06:11:00,62.7,61.0,30.30,SW,233,3.0,5.0,93,0.00,,,0.00,weatherlink.com 1.10,2013-06-22 10:11:00,
2013-06-22 06:26:00,63.1,61.0,30.30,WSW,250,2.0,4.0,92,0.00,,,0.00,weatherlink.com 1.10,2013-06-22 10:26:00,
2013-06-22 06:41:00,63.4,61.0,30.29,West,271,4.0,5.0,92,0.00,,,0.00,weatherlink.com 1.10,2013-06-22 10:41:00,
2013-06-22 06:56:00,63.3,61.0,30.29,WSW,245,5.0,6.0,92,0.00,,,0.00,weatherlink.com 1.10,2013-06-22 10:56:00,
2013-06-22 07:11:00,63.4,61.0,30.29,WSW,243,1.0,5.0,92,0.00,,,0.00,weatherlink.com 1.10,2013-06-22 11:11:00,
2013-06-22 07:26:00,63.9,61.0,30.29,WSW,248,3.0,7.0,91,0.00,,,0.00,weatherlink.com 1.10,2013-06-22 11:26:00,
2013-06-22 07:41:00,64.1,62.0,30.29,WSW,248,4.0,5.0,91,0.00,,,0.00,weatherlink.com 1.10,2013-06-22 11:41:00,
2013-06-22 07:56:00,64.3,61.0,30.29,WSW,243,5.0,7.0,90,0.00,,,0.00,weatherlink.com 1.10,2013-06-22 11:56:00,
2013-06-22 08:11:00,64.6,62.0,30.29,SW,219,3.0,6.0,90,0.00,,,0.00,weatherlink.com 1.10,2013-06-22 12:11:00,
2013-06-22 08:26:00,64.8,62.0,30.29,NW,321,3.0,7.0,90,0.00,,,0.00,weatherlink.com 1.10,2013-06-22 12:26:00,
2013-06-22 08:42:00,65.5,62.0,30.29,WSW,239,6.0,7.0,88,0.00,,,0.00,weatherlink.com 1.10,2013-06-22 12:42:00,
2013-06-22 08:57:00,65.6,62.0,30.29,SW,229,6.0,9.0,88,0.00,,,0.00,weatherlink.com 1.10,2013-06-22 12:57:00,
2013-06-22 09:12:00,65.9,62.0,30.29,SSW,201,4.0,9.0,87,0.00,,,0.00,weatherlink.com 1.10,2013-06-22 13:12:00,
2013-06-22 09:27:00,66.3,62.0,30.29,SW,223,7.0,8.0,87,0.00,,,0.00,weatherlink.com 1.10,2013-06-22 13:27:00,
2013-06-22 09:42:00,66.9,63.0,30.29,SSW,207,6.0,6.0,86,0.00,,,0.00,weatherlink.com 1.10,2013-06-22 13:42:00,
2013-06-22 09:57:00,66.7,63.0,30.30,South,185,1.0,7.0,87,0.00,,,0.00,weatherlink.com 1.10,2013-06-22 13:57:00,
2013-06-22 10:12:00,66.2,62.0,30.29,SW,217,5.0,8.0,86,0.00,,,0.00,weatherlink.com 1.10,2013-06-22 14:12:00,
2013-06-22 10:27:00,67.3,63.0,30.31,SSW,208,4.0,10.0,85,0.00,,,0.00,weatherlink.com 1.10,2013-06-22 14:27:00,
2013-06-22 10:42:00,68.0,63.0,30.31,SSW,205,4.0,7.0,85,0.00,,,0.00,weatherlink.com 1.10,2013-06-22 14:42:00,
2013-06-22 10:57:00,68.5,63.0,30.31,SSW,201,6.0,7.0,83,0.00,,,0.00,weatherlink.com 1.10,2013-06-22 14:57:00,
2013-06-22 11:12:00,68.8,63.0,30.31,SSW,211,8.0,8.0,82,0.00,,,0.00,weatherlink.com 1.10,2013-06-22 15:12:00,
2013-06-22 11:27:00,68.1,63.0,30.31,South,186,6.0,9.0,84,0.00,,,0.00,weatherlink.com 1.10,2013-06-22 15:27:00,
2013-06-22 11:42:00,68.6,63.0,30.31,SW,224,4.0,10.0,81,0.00,,,0.00,weatherlink.com 1.10,2013-06-22 15:42:00,
2013-06-22 11:57:00,68.7,63.0,30.31,SW,224,5.0,9.0,82,0.00,,,0.00,weatherlink.com 1.10,2013-06-22 15:57:00,
2013-06-22 12:12:00,69.9,64.0,30.30,SW,214,5.0,9.0,80,0.00,,,0.00,weatherlink.com 1.10,2013-06-22 16:12:00,
2013-06-22 12:27:00,69.3,63.0,30.30,SSW,193,3.0,9.0,79,0.00,,,0.00,weatherlink.com 1.10,2013-06-22 16:27:00,
2013-06-22 12:42:00,70.3,63.0,30.30,SW,222,4.0,9.0,78,0.00,,,0.00,weatherlink.com 1.10,2013-06-22 16:42:00,
2013-06-22 12:57:00,69.7,63.0,30.29,SSW,203,5.0,8.0,78,0.00,,,0.00,weatherlink.com 1.10,2013-06-22 16:57:00,
2013-06-22 13:12:00,70.4,63.0,30.28,WSW,243,1.0,7.0,78,0.00,,,0.00,weatherlink.com 1.10,2013-06-22 17:12:00,
2013-06-22 13:27:00,69.4,62.0,30.28,SW,228,8.0,9.0,76,0.00,,,0.00,weatherlink.com 1.10,2013-06-22 17:27:00,
2013-06-22 13:42:00,70.3,62.0,30.28,SSW,210,4.0,8.0,74,0.00,,,0.00,weatherlink.com 1.10,2013-06-22 17:42:00,
2013-06-22 13:57:00,70.0,62.0,30.27,SSW,201,6.0,7.0,76,0.00,,,0.00,weatherlink.com 1.10,2013-06-22 17:57:00,
2013-06-22 14:12:00,71.3,62.0,30.27,SSE,149,2.0,7.0,72,0.00,,,0.00,weatherlink.com 1.10,2013-06-22 18:12:00,
2013-06-22 14:27:00,72.3,62.0,30.27,South,186,3.0,6.0,69,0.00,,,0.00,weatherlink.com 1.10,2013-06-22 18:27:00,
2013-06-22 14:42:00,72.7,62.0,30.27,SSW,193,4.0,7.0,70,0.00,,,0.00,weatherlink.com 1.10,2013-06-22 18:42:00,
2013-06-22 14:57:00,71.3,64.0,30.26,South,187,6.0,8.0,77,0.00,,,0.00,weatherlink.com 1.10,2013-06-22 18:57:00,
2013-06-22 15:12:00,69.8,63.0,30.26,SW,219,5.0,9.0,78,0.00,,,0.00,weatherlink.com 1.10,2013-06-22 19:12:00,
2013-06-22 15:27:00,69.8,63.0,30.25,SSW,212,4.0,8.0,79,0.00,,,0.00,weatherlink.com 1.10,2013-06-22 19:27:00,
2013-06-22 15:42:00,70.6,61.0,30.25,SSW,203,3.0,7.0,71,0.00,,,0.00,weatherlink.com 1.10,2013-06-22 19:42:00,
2013-06-22 15:57:00,70.1,60.0,30.25,SSW,193,7.0,10.0,71,0.00,,,0.00,weatherlink.com 1.10,2013-06-22 19:57:00,
2013-06-22 16:12:00,69.7,61.0,30.25,SSW,204,2.0,8.0,75,0.00,,,0.00,weatherlink.com 1.10,2013-06-22 20:12:00,
2013-06-22 16:27:00,69.9,62.0,30.24,SSW,208,2.0,7.0,76,0.00,,,0.00,weatherlink.com 1.10,2013-06-22 20:27:00,
2013-06-22 16:42:00,69.8,62.0,30.24,SW,225,4.0,7.0,76,0.00,,,0.00,weatherlink.com 1.10,2013-06-22 20:42:00,
2013-06-22 16:58:00,70.7,62.0,30.24,SSW,206,3.0,7.0,74,0.00,,,0.00,weatherlink.com 1.10,2013-06-22 20:58:00,
2013-06-22 17:13:00,70.7,61.0,30.23,SW,219,9.0,9.0,71,0.00,,,0.00,weatherlink.com 1.10,2013-06-22 21:13:00,
2013-06-22 17:28:00,68.3,62.0,30.22,WSW,253,6.0,9.0,79,0.00,,,0.00,weatherlink.com 1.10,2013-06-22 21:28:00,
2013-06-22 17:43:00,68.6,62.0,30.22,SSW,212,7.0,10.0,78,0.00,,,0.00,weatherlink.com 1.10,2013-06-22 21:43:00,
2013-06-22 17:58:00,68.8,62.0,30.22,West,271,3.0,9.0,79,0.00,,,0.00,weatherlink.com 1.10,2013-06-22 21:58:00,
2013-06-22 18:13:00,68.7,63.0,30.22,South,186,4.0,6.0,81,0.00,,,0.00,weatherlink.com 1.10,2013-06-22 22:13:00,
2013-06-22 18:28:00,67.4,62.0,30.22,SW,219,4.0,6.0,83,0.00,,,0.00,weatherlink.com 1.10,2013-06-22 22:28:00,
2013-06-22 18:43:00,66.5,62.0,30.22,SSW,201,3.0,5.0,85,0.00,,,0.00,weatherlink.com 1.10,2013-06-22 22:43:00,
2013-06-22 18:58:00,66.2,62.0,30.22,SE,126,2.0,4.0,87,0.00,,,0.00,weatherlink.com 1.10,2013-06-22 22:58:00,
2013-06-22 19:13:00,65.5,63.0,30.21,ESE,115,1.0,4.0,90,0.00,,,0.00,weatherlink.com 1.10,2013-06-22 23:13:00,
2013-06-22 19:28:00,65.2,62.0,30.21,SW,222,2.0,3.0,90,0.00,,,0.00,weatherlink.com 1.10,2013-06-22 23:28:00,
2013-06-22 19:43:00,65.2,62.0,30.21,SSE,167,1.0,3.0,90,0.00,,,0.00,weatherlink.com 1.10,2013-06-22 23:43:00,
2013-06-22 19:58:00,65.0,62.0,30.21,WSW,238,3.0,4.0,90,0.00,,,0.00,weatherlink.com 1.10,2013-06-22 23:58:00,
2013-06-22 20:13:00,64.5,62.0,30.21,SSW,197,0.0,4.0,92,0.00,,,0.00,weatherlink.com 1.10,2013-06-23 00:13:00,
2013-06-22 20:28:00,64.3,62.0,30.21,WSW,237,0.0,3.0,93,0.00,,,0.00,weatherlink.com 1.10,2013-06-23 00:28:00,
2013-06-22 20:43:00,64.1,62.0,30.21,SSW,205,0.0,1.0,93,0.00,,,0.00,weatherlink.com 1.10,2013-06-23 00:43:00,
2013-06-22 20:58:00,63.9,62.0,30.21,South,184,3.0,3.0,94,0.00,,,0.00,weatherlink.com 1.10,2013-06-23 00:58:00,
2013-06-22 21:13:00,63.9,63.0,30.21,SSW,203,2.0,4.0,95,0.00,,,0.00,weatherlink.com 1.10,2013-06-23 01:13:00,
2013-06-22 21:28:00,63.9,63.0,30.22,SSW,211,1.0,4.0,95,0.00,,,0.00,weatherlink.com 1.10,2013-06-23 01:28:00,
2013-06-22 21:43:00,63.9,63.0,30.23,SW,230,2.0,4.0,95,0.00,,,0.00,weatherlink.com 1.10,2013-06-23 01:43:00,
2013-06-22 21:58:00,64.1,63.0,30.23,West,280,2.0,3.0,96,0.00,,,0.00,weatherlink.com 1.10,2013-06-23 01:58:00,
2013-06-22 22:13:00,64.3,63.0,30.24,West,280,0.0,3.0,96,0.00,,,0.00,weatherlink.com 1.10,2013-06-23 02:13:00,
2013-06-22 22:28:00,64.6,64.0,30.24,SSW,197,1.0,2.0,96,0.00,,,0.00,weatherlink.com 1.10,2013-06-23 02:28:00,
2013-06-22 22:43:00,64.7,64.0,30.24,WSW,239,2.0,4.0,96,0.00,,,0.00,weatherlink.com 1.10,2013-06-23 02:43:00,
2013-06-22 22:58:00,64.8,64.0,30.23,SW,215,3.0,5.0,96,0.00,,,0.00,weatherlink.com 1.10,2013-06-23 02:58:00,
2013-06-22 23:13:00,64.8,64.0,30.24,SW,226,3.0,5.0,96,0.00,,,0.00,weatherlink.com 1.10,2013-06-23 03:13:00,
2013-06-22 23:28:00,64.7,64.0,30.24,South,191,3.0,7.0,96,0.00,,,0.00,weatherlink.com 1.10,2013-06-23 03:28:00,
2013-06-22 23:43:00,64.4,64.0,30.24,WNW,284,1.0,7.0,97,0.00,,,0.00,weatherlink.com 1.10,2013-06-23 03:43:00,
2013-06-22 23:58:00,64.3,64.0,30.24,West,260,3.0,5.0,97,0.00,,,0.00,weatherlink.com 1.10,2013-06-23 03:58:00,